LDDU Información de aeropuertos

Información de pistas
Pista 12 Longitud 10827 ft Ancho 148 ft
Elevación 519 ft Umbral 488 ft Rumbo 118
Pista 30 Longitud 10827 ft Ancho 148 ft
Elevación 484 ft Umbral 0 ft Rumbo 298
Frecuencias
Tipo APP Nombre APP Frequencia 123.6 MHZ
Tipo TWR Nombre TWR Frequencia 129.5 MHZ
Radioayudas
Tipo NDB Nombre Dubrovnik Frequencia 397 KHZ
Tipo VOR-DME Nombre Dubrovnik Frequencia 115400 KHZ
Tipo NDB Nombre Dubrovnik Frequencia 414 KHZ
Tipo NDB Nombre Kolocep Frequencia 318 KHZ
Información meteorológica y NOTAM
ADDS - METARS form results

(2018 UTC 27 September 2021)
Data provider http://aviationweather.gov/metar/data/
 
METAR text: LDDU 272000Z VRB02KT CAVOK 18/17 Q1016 NOSIG
Conditions at: LDDU (DUBROVNIK-CILIPI, HR) observed 2000 UTC 27 September 2021
Temperature: 18.0°C (64°F)
Dewpoint: 17.0°C (63°F) [RH = 94%]
Pressure (altimeter): 30.00 inches Hg (1016.0 mb)
Winds: variable direction winds at 2 MPH (2 knots; 1.0 m/s)
Visibility: 6 or more miles (10+ km)
Ceiling: ceiling and visibility are OK
Clouds: unknown
Weather: no significant weather observed at this time

METAR text: LDDU 271930Z VRB03KT CAVOK 18/17 Q1016 NOSIG
Conditions at: LDDU (DUBROVNIK-CILIPI, HR) observed 1930 UTC 27 September 2021
Temperature: 18.0°C (64°F)
Dewpoint: 17.0°C (63°F) [RH = 94%]
Pressure (altimeter): 30.00 inches Hg (1016.0 mb)
Winds: variable direction winds at 3 MPH (3 knots; 1.5 m/s)
Visibility: 6 or more miles (10+ km)
Ceiling: ceiling and visibility are OK
Clouds: unknown
Weather: no significant weather observed at this time

Forecast for: LDDU (DUBROVNIK-CILIPI, HR)
Text: TAF LDDU 271725Z 2718/2818 VRB02KT 9999 FEW050 TX26/2811Z TN18/2805Z
Forecast period: 1800 UTC 27 September 2021 to 1800 UTC 28 September 2021
Forecast type: FROM: standard forecast or significant change
Winds: variable direction winds at 2 MPH (2 knots; 1.0 m/s)
Visibility: 6 or more miles (10+ km)
Ceiling: at least 12,000 feet AGL
Clouds: few clouds at 5000 feet AGL
Weather: no significant weather forecast for this period
Text: PROB30
Forecast period: 1100 to 1500 UTC 28 September 2021
Forecast type: TEMPORARY: The following changes expected for less than half the time period
Visibility: missing
Ceiling: at least 12,000 feet AGL
Clouds: few clouds at 6000 feet AGL
Weather: -TSRA  (light rain associated with thunderstorm(s))